Terminal Aerodrome Forecast
Issued by NWS Boise, ID

Home | Current Version | Previous Version | Text Only | Print | Product List | Glossary On
Versions: 1 2 3 4 5 6 7 8 9 10 11 12 13 14 15 16 17 18 19 20 21 22
000
FTUS45 KBOI 192336
TAFBOI
TAF
KBOI 192336Z 2000/2024 13005KT P6SM SCT035 BKN050
     FM201000 13008KT P6SM SCT050
     FM202200 13010KT 3SM -SHRA BR SCT010 OVC020=

USA.gov is the U.S. government's official web portal to all federal, state and local government web resources and services.